createdAt,value
2019-04-10T00:00:39.356Z,19.03
2019-04-10T00:03:08.279Z,19.03
2019-04-10T00:05:36.921Z,19.67
2019-04-10T00:08:06.176Z,16.80
2019-04-10T00:10:36.097Z,18.57
2019-04-10T00:13:04.867Z,19.43
2019-04-10T00:15:33.083Z,18.60
2019-04-10T00:18:01.963Z,18.20
2019-04-10T00:20:30.580Z,18.50
2019-04-10T00:23:00.160Z,19.43
2019-04-10T00:25:28.866Z,17.70
2019-04-10T00:27:57.441Z,18.63
2019-04-10T00:30:27.055Z,18.00
2019-04-10T00:32:56.438Z,20.00
2019-04-10T00:35:25.575Z,18.40
2019-04-10T00:37:54.184Z,19.27
2019-04-10T00:40:23.542Z,18.90
2019-04-10T00:42:52.309Z,18.03
2019-04-10T00:45:21.636Z,19.07
2019-04-10T00:47:51.099Z,19.50
2019-04-10T00:50:20.213Z,20.67
2019-04-10T00:52:48.820Z,18.57
2019-04-10T00:55:17.568Z,21.20
2019-04-10T00:57:46.240Z,18.23
2019-04-10T01:00:15.292Z,19.73
2019-04-10T01:02:43.544Z,18.73
2019-04-10T01:05:13.123Z,19.50
2019-04-10T01:07:44.152Z,19.00
2019-04-10T01:10:14.302Z,19.23
2019-04-10T01:12:44.022Z,19.50
2019-04-10T01:15:12.784Z,19.53
2019-04-10T01:17:42.328Z,19.83
2019-04-10T01:20:11.354Z,18.73
2019-04-10T01:22:39.933Z,18.80
2019-04-10T01:25:08.323Z,18.90
2019-04-10T01:27:36.901Z,20.00
2019-04-10T01:30:07.270Z,19.27
2019-04-10T01:32:36.957Z,20.60
2019-04-10T01:35:07.756Z,19.00
2019-04-10T01:37:48.430Z,17.90
2019-04-10T01:40:07.944Z,19.67
2019-04-10T01:42:36.859Z,20.97
2019-04-10T01:45:09.247Z,21.20
2019-04-10T01:47:37.920Z,19.03
2019-04-10T01:50:06.673Z,19.27
2019-04-10T01:52:35.409Z,18.97
2019-04-10T01:55:17.301Z,20.23
2019-04-10T01:57:34.592Z,21.10
2019-04-10T02:00:04.620Z,20.10
2019-04-10T02:02:37.797Z,18.63
2019-04-10T02:05:06.713Z,19.63
2019-04-10T02:07:35.257Z,19.80
2019-04-10T02:10:05.893Z,19.50
2019-04-10T02:12:34.651Z,20.80
2019-04-10T02:15:04.785Z,18.43
2019-04-10T02:17:33.449Z,20.90
2019-04-10T02:20:02.943Z,19.73
2019-04-10T02:22:31.663Z,21.23
2019-04-10T02:25:00.204Z,20.17
2019-04-10T02:27:28.776Z,20.90
2019-04-10T02:29:57.939Z,21.37
2019-04-10T02:32:28.202Z,22.23
2019-04-10T02:34:57.522Z,22.30
2019-04-10T02:37:27.092Z,21.40
2019-04-10T02:39:58.856Z,21.23
2019-04-10T02:42:26.783Z,21.47
2019-04-10T02:44:55.175Z,22.13
2019-04-10T02:47:23.758Z,22.80
2019-04-10T02:49:52.318Z,21.63
2019-04-10T02:52:22.442Z,22.20
2019-04-10T02:54:51.200Z,22.00
2019-04-10T02:57:21.366Z,21.50
2019-04-10T02:59:51.194Z,22.67
2019-04-10T03:02:20.277Z,21.73
2019-04-10T03:04:49.250Z,21.63
2019-04-10T03:07:17.999Z,23.07
2019-04-10T03:10:00.880Z,23.07
2019-04-10T03:12:16.837Z,20.70
2019-04-10T03:14:47.473Z,21.70
2019-04-10T03:17:15.736Z,22.47
2019-04-10T03:19:44.276Z,22.57
2019-04-10T03:22:12.857Z,22.50
2019-04-10T03:24:41.397Z,22.23
2019-04-10T03:27:10.150Z,22.13
2019-04-10T03:29:39.933Z,22.20
2019-04-10T03:32:30.999Z,22.33
2019-04-10T03:34:58.534Z,23.53
2019-04-10T03:37:27.151Z,22.27
2019-04-10T03:39:55.373Z,23.20
2019-04-10T03:42:23.946Z,19.97
2019-04-10T03:44:52.493Z,22.10
2019-04-10T03:47:21.071Z,22.87
2019-04-10T03:49:49.828Z,22.10
2019-04-10T03:52:19.030Z,23.43
2019-04-10T03:54:48.139Z,22.07
2019-04-10T03:57:16.805Z,23.37
2019-04-10T03:59:45.469Z,24.53
2019-04-10T04:02:14.101Z,22.87
2019-04-10T04:04:42.643Z,23.63
2019-04-10T04:07:11.305Z,24.20
2019-04-10T04:09:39.936Z,22.43
2019-04-10T04:12:08.500Z,22.83
2019-04-10T04:14:37.061Z,24.60
2019-04-10T04:17:06.087Z,22.50
2019-04-10T04:19:34.761Z,24.10
2019-04-10T04:22:03.998Z,22.63
2019-04-10T04:24:33.561Z,24.63
2019-04-10T04:27:02.756Z,24.37
2019-04-10T04:29:32.474Z,24.77
2019-04-10T04:32:01.200Z,23.50
2019-04-10T04:34:29.824Z,25.33
2019-04-10T04:36:58.400Z,24.17
2019-04-10T04:39:28.486Z,23.47
2019-04-10T04:41:57.170Z,24.00
2019-04-10T04:44:25.384Z,25.10
2019-04-10T04:46:53.961Z,24.83
2019-04-10T04:49:22.502Z,25.87
2019-04-10T04:51:51.080Z,25.10
2019-04-10T04:54:19.618Z,25.43
2019-04-10T04:56:48.382Z,24.97
2019-04-10T04:59:17.043Z,24.20
2019-04-10T05:01:45.617Z,23.83
2019-04-10T05:04:15.116Z,24.80
2019-04-10T05:06:43.902Z,25.83
2019-04-10T05:09:17.034Z,24.77
2019-04-10T05:11:42.743Z,26.30
2019-04-10T05:14:11.228Z,24.13
2019-04-10T05:16:39.784Z,25.63
2019-04-10T05:19:08.334Z,25.53
2019-04-10T05:21:37.277Z,26.13
2019-04-10T05:24:05.891Z,24.17
2019-04-10T05:26:34.425Z,23.00
2019-04-10T05:29:02.999Z,23.90
2019-04-10T05:31:32.213Z,26.17
2019-04-10T05:34:00.875Z,26.10
2019-04-10T05:36:29.437Z,24.53
2019-04-10T05:38:58.020Z,26.70
2019-04-10T05:41:26.229Z,25.53
2019-04-10T05:43:55.037Z,25.27
2019-04-10T05:46:23.320Z,25.07
2019-04-10T05:48:52.555Z,23.13
2019-04-10T05:51:21.428Z,25.67
2019-04-10T05:53:52.787Z,20.33
2019-04-10T05:56:20.678Z,25.53
2019-04-10T05:58:49.365Z,24.37
2019-04-10T06:01:30.011Z,26.27
2019-04-10T06:03:49.096Z,25.07
2019-04-10T06:06:17.755Z,23.47
2019-04-10T06:08:47.067Z,23.53
2019-04-10T06:11:17.018Z,25.47
2019-04-10T06:13:45.760Z,25.87
2019-04-10T06:16:15.297Z,22.10
2019-04-10T06:18:45.077Z,25.80
2019-04-10T06:21:14.657Z,24.93
2019-04-10T06:23:43.494Z,25.40
2019-04-10T06:26:12.581Z,26.33
2019-04-10T06:28:42.192Z,26.57
2019-04-10T06:31:10.905Z,26.47
2019-04-10T06:33:40.317Z,27.07
2019-04-10T06:36:09.202Z,23.67
2019-04-10T06:38:37.881Z,29.10
2019-04-10T06:41:06.898Z,27.83
2019-04-10T06:43:35.446Z,25.97
2019-04-10T06:46:04.340Z,25.73
2019-04-10T06:48:34.106Z,26.33
2019-04-10T06:51:03.906Z,26.40
2019-04-10T06:53:33.159Z,26.90
2019-04-10T06:56:02.821Z,24.63
2019-04-10T06:58:31.880Z,25.83
2019-04-10T07:01:01.764Z,24.70
2019-04-10T07:03:45.886Z,27.37
2019-04-10T07:06:09.939Z,29.73
2019-04-10T07:08:31.975Z,26.57
2019-04-10T07:11:07.778Z,25.93
2019-04-10T07:13:30.575Z,24.87
2019-04-10T07:15:59.955Z,27.07
2019-04-10T07:18:28.599Z,26.83
2019-04-10T07:20:59.904Z,27.00
2019-04-10T07:23:29.247Z,26.57
2019-04-10T07:25:56.927Z,25.17
2019-04-10T07:28:25.709Z,25.87
2019-04-10T07:30:56.802Z,24.27
2019-04-10T07:33:24.642Z,27.10
2019-04-10T07:35:55.165Z,27.57
2019-04-10T07:38:24.580Z,26.87
2019-04-10T07:40:53.316Z,26.40
2019-04-10T07:43:25.818Z,24.93
2019-04-10T07:45:52.166Z,23.63
2019-04-10T07:48:20.566Z,27.30
2019-04-10T07:50:51.601Z,26.07
2019-04-10T07:53:20.204Z,27.37
2019-04-10T07:55:58.446Z,25.63
2019-04-10T07:58:19.495Z,26.87
2019-04-10T08:00:49.758Z,25.67
2019-04-10T08:03:18.836Z,27.10
2019-04-10T08:05:48.122Z,25.27
2019-04-10T08:08:17.129Z,22.33
2019-04-10T08:10:45.772Z,26.03
2019-04-10T08:13:14.353Z,23.70
2019-04-10T08:15:43.316Z,27.27
2019-04-10T08:18:12.291Z,27.97
2019-04-10T08:20:40.960Z,26.03
2019-04-10T08:23:10.223Z,28.43
2019-04-10T08:25:39.035Z,29.07
2019-04-10T08:28:07.357Z,34.20
2019-04-10T08:30:36.346Z,30.97
2019-04-10T08:33:06.102Z,28.23
2019-04-10T08:35:35.732Z,26.80
2019-04-10T08:38:05.407Z,28.60
2019-04-10T08:40:34.245Z,28.27
2019-04-10T08:43:04.052Z,26.60
2019-04-10T08:45:40.588Z,28.43
2019-04-10T08:48:03.592Z,26.13
2019-04-10T08:50:32.258Z,26.17
2019-04-10T08:53:01.984Z,27.30
2019-04-10T08:55:30.696Z,27.33
2019-04-10T08:57:59.275Z,29.13
2019-04-10T09:00:28.834Z,28.20
2019-04-10T09:02:58.154Z,33.53
2019-04-10T09:05:27.808Z,28.37
2019-04-10T09:07:56.928Z,28.93
2019-04-10T09:10:26.065Z,29.37
2019-04-10T09:12:55.899Z,25.30
2019-04-10T09:15:25.746Z,24.60
2019-04-10T09:17:55.567Z,28.03
2019-04-10T09:20:24.800Z,25.83
2019-04-10T09:23:14.458Z,25.97
2019-04-10T09:25:24.584Z,28.50
2019-04-10T09:27:53.924Z,32.40
2019-04-10T09:30:22.737Z,30.03
2019-04-10T09:32:51.301Z,30.17
2019-04-10T09:35:20.428Z,29.17
2019-04-10T09:37:48.899Z,27.20
2019-04-10T09:40:18.334Z,27.03
2019-04-10T09:42:47.977Z,28.27
2019-04-10T09:45:16.356Z,28.37
2019-04-10T09:47:45.838Z,25.67
2019-04-10T09:50:15.181Z,25.63
2019-04-10T09:52:44.064Z,30.13
2019-04-10T09:55:13.897Z,29.87
2019-04-10T09:58:00.051Z,29.83
2019-04-10T10:00:29.918Z,27.47
2019-04-10T10:02:59.328Z,28.97
2019-04-10T10:05:28.587Z,28.40
2019-04-10T10:07:57.988Z,29.03
2019-04-10T10:10:26.598Z,28.13
2019-04-10T10:12:55.145Z,28.63
2019-04-10T10:15:23.725Z,29.30
2019-04-10T10:17:52.840Z,29.17
2019-04-10T10:20:21.825Z,29.27
2019-04-10T10:22:51.447Z,29.27
2019-04-10T10:25:21.432Z,29.60
2019-04-10T10:27:50.957Z,28.20
2019-04-10T10:30:20.628Z,28.90
2019-04-10T10:32:49.180Z,28.73
2019-04-10T10:35:18.811Z,29.57
2019-04-10T10:37:48.452Z,25.73
2019-04-10T10:40:17.776Z,28.60
2019-04-10T10:42:47.626Z,28.13
2019-04-10T10:45:16.853Z,28.60
2019-04-10T10:47:46.368Z,30.33
2019-04-10T10:50:15.219Z,27.93
2019-04-10T10:52:43.894Z,27.00
2019-04-10T10:55:12.164Z,27.43
2019-04-10T10:57:41.555Z,29.00
2019-04-10T11:00:13.221Z,29.80
2019-04-10T11:02:41.849Z,29.67
2019-04-10T11:05:10.780Z,28.37
2019-04-10T11:07:40.414Z,28.90
2019-04-10T11:10:10.689Z,27.97
2019-04-10T11:12:39.187Z,27.63
2019-04-10T11:15:08.418Z,28.87
2019-04-10T11:17:38.460Z,28.67
2019-04-10T11:20:10.194Z,28.50
2019-04-10T11:22:39.948Z,25.67
2019-04-10T11:25:08.708Z,26.37
2019-04-10T11:27:37.280Z,26.70
2019-04-10T11:30:08.239Z,27.77
2019-04-10T11:32:38.230Z,29.17
2019-04-10T11:35:07.812Z,27.43
2019-04-10T11:37:43.843Z,27.83
2019-04-10T11:40:08.761Z,29.07
2019-04-10T11:42:39.734Z,28.00
2019-04-10T11:45:10.556Z,26.50
2019-04-10T11:47:39.752Z,27.37
2019-04-10T11:52:44.752Z,30.50
2019-04-10T11:55:13.924Z,30.47
2019-04-10T11:57:41.761Z,29.63
2019-04-10T12:02:44.998Z,29.13
2019-04-10T12:05:18.180Z,29.53
2019-04-10T12:08:09.045Z,28.40
2019-04-10T12:12:41.997Z,27.17
2019-04-10T12:15:10.717Z,27.67
2019-04-10T12:17:40.217Z,28.20
2019-04-10T12:20:09.348Z,29.77
2019-04-10T12:22:37.950Z,28.20
2019-04-10T12:25:06.984Z,29.07
2019-04-10T12:27:35.579Z,25.23
2019-04-10T12:30:10.870Z,28.73
2019-04-10T12:32:39.522Z,29.83
2019-04-10T12:35:08.848Z,27.53
2019-04-10T12:37:37.362Z,29.60
2019-04-10T12:40:07.741Z,28.60
2019-04-10T12:42:36.578Z,29.13
2019-04-10T12:45:06.725Z,30.10
2019-04-10T12:47:34.969Z,30.07
2019-04-10T12:50:05.794Z,27.23
2019-04-10T12:52:34.625Z,28.30
2019-04-10T12:55:04.006Z,30.20
2019-04-10T12:57:32.669Z,27.73
2019-04-10T13:00:11.879Z,25.10
2019-04-10T13:02:40.795Z,26.23
2019-04-10T13:05:09.526Z,26.80
2019-04-10T13:07:38.096Z,32.27
2019-04-10T13:10:08.590Z,27.27
2019-04-10T13:12:37.645Z,29.53
2019-04-10T13:15:10.998Z,29.80
2019-04-10T13:17:40.660Z,31.30
2019-04-10T13:20:12.272Z,30.27
2019-04-10T13:22:40.897Z,29.23
2019-04-10T13:25:10.252Z,29.57
2019-04-10T13:27:39.179Z,28.93
2019-04-10T13:30:12.657Z,29.27
2019-04-10T13:32:40.628Z,30.43
2019-04-10T13:35:10.343Z,25.13
2019-04-10T13:37:39.068Z,30.27
2019-04-10T13:40:08.291Z,29.10
2019-04-10T13:42:37.173Z,29.93
2019-04-10T13:45:07.985Z,30.27
2019-04-10T13:47:36.657Z,27.40
2019-04-10T13:50:09.243Z,28.87
2019-04-10T13:52:40.467Z,29.27
2019-04-10T13:55:10.226Z,29.13
2019-04-10T13:57:39.215Z,28.33
2019-04-10T14:00:11.366Z,29.37
2019-04-10T14:02:40.141Z,31.77
2019-04-10T14:05:11.670Z,27.23
2019-04-10T14:07:40.181Z,31.17
2019-04-10T14:10:10.609Z,32.07
2019-04-10T14:12:39.232Z,30.67
2019-04-10T14:15:09.815Z,32.90
2019-04-10T14:17:38.556Z,29.60
2019-04-10T14:20:07.405Z,33.23
2019-04-10T14:22:37.917Z,28.13
2019-04-10T14:25:09.471Z,28.57
2019-04-10T14:27:38.659Z,29.07
2019-04-10T14:30:11.315Z,28.60
2019-04-10T14:32:45.191Z,28.93
2019-04-10T14:35:14.798Z,30.40
2019-04-10T14:37:43.491Z,28.97
2019-04-10T14:40:13.780Z,27.80
2019-04-10T14:42:42.519Z,27.07
2019-04-10T14:45:11.154Z,27.10
2019-04-10T14:47:39.841Z,29.87
2019-04-10T14:50:09.426Z,29.40
2019-04-10T14:52:38.023Z,28.47
2019-04-10T14:55:06.844Z,28.70
2019-04-10T14:57:35.490Z,28.97
2019-04-10T15:00:08.608Z,27.17
2019-04-10T15:02:37.172Z,28.17
2019-04-10T15:05:07.924Z,31.53
2019-04-10T15:07:37.258Z,26.47
2019-04-10T15:10:06.936Z,29.53
2019-04-10T15:12:35.159Z,29.43
2019-04-10T15:15:04.978Z,31.47
2019-04-10T15:17:33.195Z,30.87
2019-04-10T15:20:01.788Z,30.37
2019-04-10T15:22:30.357Z,27.67
2019-04-10T15:24:59.346Z,29.63
2019-04-10T15:27:29.160Z,29.90
2019-04-10T15:29:57.805Z,29.90
2019-04-10T15:32:26.387Z,30.43
2019-04-10T15:34:55.815Z,28.00
2019-04-10T15:37:24.911Z,32.87
2019-04-10T15:39:53.928Z,32.23
2019-04-10T15:42:23.790Z,31.87
2019-04-10T15:44:52.578Z,31.77
2019-04-10T15:47:23.084Z,30.73
2019-04-10T15:49:51.708Z,32.60
2019-04-10T15:52:20.373Z,33.23
2019-04-10T15:54:49.936Z,28.57
2019-04-10T15:57:18.905Z,30.20
2019-04-10T15:59:48.323Z,31.37
2019-04-10T16:02:17.078Z,32.57
2019-04-10T16:04:45.696Z,28.30
2019-04-10T16:07:14.979Z,28.23
2019-04-10T16:09:49.887Z,31.87
2019-04-10T16:12:16.589Z,29.13
2019-04-10T16:14:46.478Z,26.07
2019-04-10T16:17:29.383Z,28.27
2019-04-10T16:20:00.152Z,29.60
2019-04-10T16:22:31.215Z,27.83
2019-04-10T16:27:36.986Z,31.33
2019-04-10T16:30:08.189Z,30.90
2019-04-10T16:32:37.018Z,27.10
2019-04-10T16:35:07.172Z,31.63
2019-04-10T16:37:35.635Z,27.73
2019-04-10T16:40:08.495Z,29.40
2019-04-10T16:42:36.978Z,26.63
2019-04-10T16:45:06.094Z,27.50
2019-04-10T16:47:34.785Z,25.83
2019-04-10T16:50:05.628Z,28.90
2019-04-10T16:52:34.175Z,28.77
2019-04-10T16:55:02.926Z,31.43
2019-04-10T16:57:31.573Z,30.10
2019-04-10T17:00:00.153Z,29.03
2019-04-10T17:02:28.705Z,24.92
2019-04-10T17:04:58.443Z,26.90
2019-04-10T17:07:27.292Z,26.50
2019-04-10T17:09:56.686Z,27.27
2019-04-10T17:12:25.699Z,28.23
2019-04-10T17:14:55.410Z,28.23
2019-04-10T17:17:24.262Z,23.77
2019-04-10T17:19:57.274Z,25.67
2019-04-10T17:22:33.167Z,28.93
2019-04-10T17:24:53.800Z,28.33
2019-04-10T17:27:23.549Z,27.77
2019-04-10T17:29:53.497Z,27.80
2019-04-10T17:32:23.444Z,27.53
2019-04-10T17:34:52.135Z,27.57
2019-04-10T17:37:21.316Z,28.13
2019-04-10T17:39:49.942Z,25.60
2019-04-10T17:42:19.933Z,26.13
2019-04-10T17:44:49.739Z,26.83
2019-04-10T17:47:18.580Z,29.97
2019-04-10T17:49:47.687Z,29.40
2019-04-10T17:52:16.647Z,27.67
2019-04-10T17:54:45.273Z,25.67
2019-04-10T17:57:14.816Z,28.37
2019-04-10T17:59:44.732Z,26.43
2019-04-10T18:02:13.781Z,27.67
2019-04-10T18:04:42.438Z,24.60
2019-04-10T18:07:12.046Z,27.10
2019-04-10T18:09:40.958Z,28.17
2019-04-10T18:12:10.633Z,25.90
2019-04-10T18:14:40.890Z,26.13
2019-04-10T18:17:10.760Z,28.30
2019-04-10T18:19:39.532Z,28.57
2019-04-10T18:22:08.105Z,27.80
2019-04-10T18:24:36.730Z,27.13
2019-04-10T18:27:05.828Z,27.13
2019-04-10T18:29:35.074Z,26.43
2019-04-10T18:32:03.872Z,28.40
2019-04-10T18:34:33.361Z,26.57
2019-04-10T18:37:02.878Z,28.10
2019-04-10T18:39:32.625Z,27.47
2019-04-10T18:42:01.420Z,28.10
2019-04-10T18:44:31.072Z,27.90
2019-04-10T18:47:00.669Z,27.87
2019-04-10T18:49:29.556Z,25.50
2019-04-10T18:51:58.406Z,24.90
2019-04-10T18:54:27.061Z,28.13
2019-04-10T18:56:55.715Z,26.60
2019-04-10T18:59:26.887Z,26.23
2019-04-10T19:01:57.128Z,28.57
2019-04-10T19:04:43.573Z,27.87
2019-04-10T19:07:13.193Z,26.67
2019-04-10T19:09:42.858Z,26.10
2019-04-10T19:12:12.630Z,28.30
2019-04-10T19:14:42.459Z,27.53
2019-04-10T19:17:11.270Z,26.83
2019-04-10T19:19:42.222Z,28.50
2019-04-10T19:22:12.992Z,28.60
2019-04-10T19:24:41.670Z,26.70
2019-04-10T19:27:10.245Z,28.07
2019-04-10T19:29:38.830Z,27.30
2019-04-10T19:32:10.007Z,26.57
2019-04-10T19:34:39.256Z,26.60
2019-04-10T19:37:08.138Z,24.93
2019-04-10T19:39:36.742Z,26.87
2019-04-10T19:42:05.859Z,26.77
2019-04-10T19:44:35.138Z,27.97
2019-04-10T19:47:04.193Z,27.73
2019-04-10T19:49:32.937Z,27.57
2019-04-10T19:52:02.333Z,28.20
2019-04-10T19:54:31.563Z,27.40
2019-04-10T19:57:01.214Z,27.33
2019-04-10T19:59:29.933Z,27.70
2019-04-10T20:01:58.278Z,28.10
2019-04-10T20:04:26.810Z,27.63
2019-04-10T20:06:56.362Z,26.17
2019-04-10T20:09:25.282Z,26.40
2019-04-10T20:11:56.161Z,26.57
2019-04-10T20:14:24.176Z,26.13
2019-04-10T20:16:52.712Z,26.17
2019-04-10T20:19:22.344Z,25.27
2019-04-10T20:21:51.045Z,24.33
2019-04-10T20:24:20.598Z,26.33
2019-04-10T20:26:49.649Z,25.67
2019-04-10T20:29:19.115Z,27.33
2019-04-10T20:31:49.830Z,26.23
2019-04-10T20:34:19.149Z,26.23
2019-04-10T20:36:48.991Z,24.90
2019-04-10T20:39:18.006Z,25.07
2019-04-10T20:41:53.290Z,23.77
2019-04-10T20:44:16.877Z,24.97
2019-04-10T20:46:46.342Z,22.97
2019-04-10T20:49:16.207Z,21.63
2019-04-10T20:51:45.983Z,23.03
2019-04-10T20:54:15.193Z,25.33
2019-04-10T20:56:43.791Z,23.73
2019-04-10T20:59:12.331Z,23.17
2019-04-10T21:01:41.502Z,22.27
2019-04-10T21:04:10.090Z,22.33
2019-04-10T21:06:41.622Z,23.10
2019-04-10T21:09:09.721Z,24.30
2019-04-10T21:11:38.424Z,22.20
2019-04-10T21:14:07.333Z,21.53
2019-04-10T21:16:35.911Z,19.60
2019-04-10T21:19:04.590Z,20.77
2019-04-10T21:21:33.144Z,18.77
2019-04-10T21:24:02.989Z,18.93
2019-04-10T21:26:32.474Z,17.87
2019-04-10T21:29:02.363Z,19.37
2019-04-10T21:31:36.348Z,18.97
2019-04-10T21:34:07.652Z,19.83
2019-04-10T21:36:37.440Z,13.43
2019-04-10T21:39:07.898Z,18.10
2019-04-10T21:41:36.876Z,17.73
2019-04-10T21:44:06.417Z,17.20
2019-04-10T21:46:35.081Z,16.10
2019-04-10T21:49:03.741Z,16.97
2019-04-10T21:51:33.456Z,15.63
2019-04-10T21:54:02.309Z,16.70
2019-04-10T21:56:30.995Z,16.57
2019-04-10T21:58:59.324Z,15.90
2019-04-10T22:01:28.413Z,14.33
2019-04-10T22:03:58.337Z,13.80
2019-04-10T22:06:31.095Z,12.80
2019-04-10T22:09:04.120Z,13.17
2019-04-10T22:11:32.949Z,9.70
2019-04-10T22:14:02.388Z,12.20
2019-04-10T22:16:31.253Z,11.93
2019-04-10T22:18:59.548Z,10.03
2019-04-10T22:21:29.097Z,9.70
2019-04-10T22:23:58.642Z,11.70
2019-04-10T22:26:27.736Z,11.30
2019-04-10T22:28:56.875Z,7.23
2019-04-10T22:31:26.169Z,8.40
2019-04-10T22:33:54.713Z,9.27
2019-04-10T22:36:23.276Z,9.97
2019-04-10T22:38:51.903Z,9.40
2019-04-10T22:41:27.124Z,9.47
2019-04-10T22:43:49.928Z,8.77
2019-04-10T22:46:19.323Z,7.77
2019-04-10T22:48:48.018Z,8.90
2019-04-10T22:51:17.164Z,9.10
2019-04-10T22:53:45.906Z,8.40
2019-04-10T22:56:15.017Z,7.90
2019-04-10T22:58:44.194Z,7.97
2019-04-10T23:01:13.190Z,7.47
2019-04-10T23:03:43.080Z,7.93
2019-04-10T23:06:11.746Z,7.83
2019-04-10T23:08:39.961Z,6.10
2019-04-10T23:11:09.758Z,7.83
2019-04-10T23:13:38.408Z,7.47
2019-04-10T23:16:08.888Z,6.97
2019-04-10T23:18:37.508Z,7.70
2019-04-10T23:21:06.220Z,8.43
2019-04-10T23:23:34.938Z,7.37
2019-04-10T23:26:04.751Z,7.87
2019-04-10T23:28:33.756Z,7.20
2019-04-10T23:31:03.529Z,7.57
2019-04-10T23:33:33.017Z,8.70
2019-04-10T23:36:02.102Z,7.13
2019-04-10T23:38:31.187Z,8.07
2019-04-10T23:40:59.736Z,7.97
2019-04-10T23:43:29.371Z,8.73
2019-04-10T23:45:58.125Z,7.37
2019-04-10T23:48:26.696Z,6.33
2019-04-10T23:50:55.242Z,7.60
2019-04-10T23:53:24.608Z,8.87
2019-04-10T23:55:54.409Z,7.77
2019-04-10T23:58:24.219Z,7.00
